Time;durP1;ratioP1;P1;durP2;ratioP2;P2;SDS_P1;SDS_P2;PMS_P1;PMS_P2;Temp;Humidity;BMP_temperature;BMP_pressure;BME280_temperature;BME280_humidity;BME280_pressure;Samples;Min_cycle;Max_cycle;Signal;HPM_P1;HPM_P2
2022/07/01 00:02:09;;;;;;;8.80;7.10;;;;;;;;;;5053684;28;20052;-87
2022/07/01 00:04:42;;;;;;;;;;;;;;;;;;5053804;28;20049;-87
2022/07/01 00:07:11;;;;;;;13.02;7.30;;;;;;;;;;5054234;28;19979;-88
2022/07/01 00:09:38;;;;;;;10.38;7.60;;;;;;;;;;5053260;28;20053;-88
2022/07/01 00:12:07;;;;;;;10.38;7.38;;;;;;;;;;5054233;28;20045;-87
2022/07/01 00:14:34;;;;;;;8.82;7.25;;;;;;;;;;5054469;28;20080;-87
2022/07/01 00:17:01;;;;;;;8.70;7.18;;;;;;;;;;5053922;28;20115;-87
2022/07/01 00:19:28;;;;;;;10.65;7.43;;;;;;;;;;5054190;28;20084;-87
2022/07/01 00:21:55;;;;;;;10.50;7.63;;;;;;;;;;5052853;28;20049;-86
2022/07/01 00:24:22;;;;;;;10.13;8.50;;;;;;;;;;5054094;28;20088;-88
2022/07/01 00:26:50;;;;;;;8.45;7.65;;;;;;;;;;5053207;28;20080;-87
2022/07/01 00:29:18;;;;;;;8.48;7.07;;;;;;;;;;5052996;28;20060;-87
2022/07/01 00:31:45;;;;;;;8.45;7.65;;;;;;;;;;5052778;28;20095;-87
2022/07/01 00:34:12;;;;;;;8.80;7.53;;;;;;;;;;5052546;28;20520;-87
2022/07/01 00:36:39;;;;;;;9.75;7.65;;;;;;;;;;5052768;28;20052;-87
2022/07/01 00:39:06;;;;;;;10.55;6.90;;;;;;;;;;5053366;28;20080;-88
2022/07/01 00:41:34;;;;;;;14.65;7.45;;;;;;;;;;5052592;28;20080;-87
2022/07/01 00:44:01;;;;;;;12.82;7.63;;;;;;;;;;5052557;28;20520;-87
2022/07/01 00:46:28;;;;;;;7.78;6.70;;;;;;;;;;5052619;28;20087;-87
2022/07/01 00:48:57;;;;;;;14.07;7.50;;;;;;;;;;5052472;28;20516;-87
2022/07/01 00:51:24;;;;;;;10.82;7.57;;;;;;;;;;5053646;28;20111;-87
2022/07/01 00:53:51;;;;;;;10.48;7.53;;;;;;;;;;5052476;28;20055;-87
2022/07/01 00:56:20;;;;;;;8.15;7.35;;;;;;;;;;5053489;28;20144;-88
2022/07/01 00:58:47;;;;;;;8.80;7.10;;;;;;;;;;5052699;28;20069;-87
2022/07/01 01:01:14;;;;;;;8.60;7.63;;;;;;;;;;5052910;28;20136;-87
2022/07/01 01:03:41;;;;;;;9.02;7.68;;;;;;;;;;5052542;28;20048;-87
2022/07/01 01:06:10;;;;;;;8.32;7.50;;;;;;;;;;5053384;28;20045;-86
2022/07/01 01:08:37;;;;;;;10.85;8.02;;;;;;;;;;5052492;28;20080;-87
2022/07/01 01:11:05;;;;;;;8.30;7.07;;;;;;;;;;5052046;28;20480;-86
2022/07/01 01:13:33;;;;;;;15.38;7.20;;;;;;;;;;5052548;28;20049;-86
2022/07/01 01:16:00;;;;;;;8.60;7.47;;;;;;;;;;5052050;28;20092;-88
2022/07/01 01:18:27;;;;;;;7.57;6.88;;;;;;;;;;5053231;28;20041;-87
2022/07/01 01:20:55;;;;;;;7.90;7.28;;;;;;;;;;5053378;28;20437;-87
2022/07/01 01:23:22;;;;;;;8.05;7.25;;;;;;;;;;5052342;28;20049;-86
2022/07/01 01:25:49;;;;;;;9.68;7.43;;;;;;;;;;5052164;28;20072;-88
2022/07/01 01:28:16;;;;;;;10.20;7.07;;;;;;;;;;5052081;28;20049;-86
2022/07/01 01:30:44;;;;;;;13.23;6.97;;;;;;;;;;5052465;28;20116;-88
2022/07/01 01:33:11;;;;;;;10.65;7.05;;;;;;;;;;5052266;28;20081;-87
2022/07/01 01:35:39;;;;;;;7.05;5.82;;;;;;;;;;5052240;28;20081;-87
2022/07/01 01:38:06;;;;;;;9.35;5.88;;;;;;;;;;5052914;28;20128;-88
2022/07/01 01:40:33;;;;;;;19.27;6.68;;;;;;;;;;5052286;28;20084;-89
2022/07/01 01:43:00;;;;;;;19.10;6.55;;;;;;;;;;5052764;28;20092;-86
2022/07/01 01:45:28;;;;;;;15.68;6.43;;;;;;;;;;5051903;28;20513;-85
2022/07/01 01:47:55;;;;;;;17.65;6.95;;;;;;;;;;5051409;28;20052;-83
2022/07/01 01:50:22;;;;;;;16.45;7.47;;;;;;;;;;5052601;28;20080;-84
2022/07/01 01:52:49;;;;;;;14.63;6.82;;;;;;;;;;5052394;28;20088;-84
2022/07/01 01:55:16;;;;;;;14.25;6.72;;;;;;;;;;5051559;28;20132;-85
2022/07/01 01:57:44;;;;;;;15.18;7.07;;;;;;;;;;5051308;28;20080;-85
2022/07/01 02:00:12;;;;;;;17.17;8.02;;;;;;;;;;5051634;28;20081;-87
2022/07/01 02:02:39;;;;;;;13.63;8.15;;;;;;;;;;5051931;28;20516;-86
2022/07/01 02:05:07;;;;;;;11.23;8.55;;;;;;;;;;5052604;28;20493;-87
2022/07/01 02:07:35;;;;;;;16.73;9.52;;;;;;;;;;5056459;28;20490;-86
2022/07/01 02:10:03;;;;;;;13.05;9.68;;;;;;;;;;5055113;28;20132;-86
2022/07/01 02:12:30;;;;;;;19.25;9.68;;;;;;;;;;5055602;28;20088;-86
2022/07/01 02:14:57;;;;;;;12.30;10.52;;;;;;;;;;5056348;28;20107;-86
2022/07/01 02:17:25;;;;;;;11.23;9.98;;;;;;;;;;5055436;28;20084;-86
2022/07/01 02:19:53;;;;;;;13.02;9.68;;;;;;;;;;5055333;28;20049;-85
2022/07/01 02:22:20;;;;;;;14.90;11.35;;;;;;;;;;5055412;28;20084;-87
2022/07/01 02:24:47;;;;;;;12.90;9.55;;;;;;;;;;5055255;28;20083;-86
2022/07/01 02:27:14;;;;;;;19.02;10.13;;;;;;;;;;5056817;28;20087;-87
2022/07/01 02:29:41;;;;;;;12.25;10.80;;;;;;;;;;5055510;28;20049;-87
2022/07/01 02:32:09;;;;;;;19.02;10.65;;;;;;;;;;5055444;28;20057;-87
2022/07/01 02:34:36;;;;;;;11.60;10.02;;;;;;;;;;5055900;28;20137;-86
2022/07/01 02:37:04;;;;;;;16.38;10.13;;;;;;;;;;5054909;28;20048;-87
2022/07/01 02:39:33;;;;;;;17.85;10.70;;;;;;;;;;5054857;28;20186;-86
2022/07/01 02:44:45;;;;;;;11.63;10.13;;;;;;;;;;5056294;28;20076;-86
2022/07/01 02:47:13;;;;;;;12.98;11.75;;;;;;;;;;5055483;28;20077;-87
2022/07/01 02:49:40;;;;;;;12.40;11.25;;;;;;;;;;5056582;28;20081;-86
2022/07/01 02:52:07;;;;;;;16.63;12.82;;;;;;;;;;5054782;28;20089;-87
2022/07/01 02:54:34;;;;;;;17.05;13.15;;;;;;;;;;5054695;28;20520;-87
2022/07/01 02:57:02;;;;;;;14.55;13.00;;;;;;;;;;5054883;28;20417;-86
2022/07/01 02:59:29;;;;;;;14.23;12.13;;;;;;;;;;5054863;28;20497;-86
2022/07/01 03:01:56;;;;;;;13.55;12.18;;;;;;;;;;5055674;28;20099;-86
2022/07/01 03:04:24;;;;;;;14.27;11.70;;;;;;;;;;5055478;28;20107;-86
2022/07/01 03:06:51;;;;;;;19.75;13.48;;;;;;;;;;5054511;28;20072;-86
2022/07/01 03:09:18;;;;;;;13.80;12.43;;;;;;;;;;5054567;28;20132;-86
2022/07/01 03:11:45;;;;;;;14.00;12.63;;;;;;;;;;5054452;28;20045;-86
2022/07/01 03:14:12;;;;;;;13.38;11.98;;;;;;;;;;5055526;28;20451;-86
2022/07/01 03:16:40;;;;;;;14.15;12.65;;;;;;;;;;5055069;28;20132;-86
2022/07/01 03:19:09;;;;;;;16.33;14.10;;;;;;;;;;5055696;28;20084;-86
2022/07/01 03:21:36;;;;;;;16.17;12.70;;;;;;;;;;5054401;28;20580;-86
2022/07/01 03:24:03;;;;;;;15.38;13.88;;;;;;;;;;5054710;28;20056;-87
2022/07/01 03:26:31;;;;;;;17.40;14.60;;;;;;;;;;5054415;28;20176;-86
2022/07/01 03:29:04;;;;;;;;;;;;;;;;;;5055691;28;20126;-86
2022/07/01 03:31:31;;;;;;;15.82;13.70;;;;;;;;;;5054146;28;20357;-85
2022/07/01 03:33:59;;;;;;;15.07;13.75;;;;;;;;;;5054998;28;20049;-86
2022/07/01 03:36:26;;;;;;;21.65;14.43;;;;;;;;;;5053998;28;20092;-86
2022/07/01 03:38:53;;;;;;;16.02;14.40;;;;;;;;;;5054633;28;20513;-86
2022/07/01 03:41:20;;;;;;;15.25;13.73;;;;;;;;;;5055060;28;20080;-87
2022/07/01 03:43:47;;;;;;;17.42;15.75;;;;;;;;;;5053701;28;20091;-85
2022/07/01 03:46:15;;;;;;;16.83;15.00;;;;;;;;;;5053799;28;20056;-86
2022/07/01 03:48:42;;;;;;;16.38;14.77;;;;;;;;;;5053938;28;20135;-86
2022/07/01 03:51:09;;;;;;;20.85;18.85;;;;;;;;;;5053937;28;20175;-86
2022/07/01 03:56:22;;;;;;;26.63;19.20;;;;;;;;;;5054334;28;20089;-85
2022/07/01 03:58:49;;;;;;;19.00;17.17;;;;;;;;;;5053712;28;20085;-86
2022/07/01 04:01:16;;;;;;;21.95;19.23;;;;;;;;;;5053732;28;20041;-86
2022/07/01 04:03:44;;;;;;;22.40;20.05;;;;;;;;;;5053422;28;20560;-86
2022/07/01 04:06:11;;;;;;;19.42;17.52;;;;;;;;;;5053278;28;20413;-87
2022/07/01 04:08:39;;;;;;;18.45;16.55;;;;;;;;;;5053301;28;20080;-85
2022/07/01 04:11:08;;;;;;;21.33;19.30;;;;;;;;;;5053067;28;20458;-86
2022/07/01 04:13:39;;;;;;;16.92;15.35;;;;;;;;;;5053344;28;20060;-86
2022/07/01 04:16:07;;;;;;;20.35;18.27;;;;;;;;;;5053218;28;20401;-86
2022/07/01 04:18:35;;;;;;;15.35;13.77;;;;;;;;;;5054050;28;20163;-86
2022/07/01 04:23:48;;;;;;;19.63;17.63;;;;;;;;;;5054286;28;20092;-86
2022/07/01 04:26:16;;;;;;;19.65;17.60;;;;;;;;;;5053286;28;20103;-86
2022/07/01 04:29:03;;;;;;;18.40;15.95;;;;;;;;;;5052347;28;20045;-86
2022/07/01 04:31:31;;;;;;;17.00;15.35;;;;;;;;;;5054085;28;20123;-86
2022/07/01 04:33:58;;;;;;;17.58;15.65;;;;;;;;;;5052829;28;20132;-85
2022/07/01 04:36:25;;;;;;;17.88;16.27;;;;;;;;;;5052956;28;20076;-86
2022/07/01 04:38:53;;;;;;;18.00;16.35;;;;;;;;;;5053454;28;20084;-86
2022/07/01 04:44:06;;;;;;;15.52;13.95;;;;;;;;;;5053787;28;20084;-87
2022/07/01 04:46:35;;;;;;;13.23;12.02;;;;;;;;;;5053882;28;20049;-86
2022/07/01 04:49:03;;;;;;;14.43;13.02;;;;;;;;;;5052804;28;20049;-86
2022/07/01 04:51:30;;;;;;;13.77;12.32;;;;;;;;;;5053827;28;20084;-86
2022/07/01 04:54:00;;;;;;;16.95;14.23;;;;;;;;;;5052523;28;20075;-86
2022/07/01 04:56:28;;;;;;;11.82;10.75;;;;;;;;;;5052086;28;20460;-86
2022/07/01 04:59:01;;;;;;;12.50;11.13;;;;;;;;;;5052173;28;20564;-86
2022/07/01 05:01:30;;;;;;;10.82;9.98;;;;;;;;;;5052204;28;20083;-86
2022/07/01 05:04:10;;;;;;;10.55;9.60;;;;;;;;;;5052277;28;20081;-86
2022/07/01 05:06:41;;;;;;;10.20;9.30;;;;;;;;;;5052327;28;20056;-87
2022/07/01 05:09:11;;;;;;;10.63;9.55;;;;;;;;;;5052187;28;20065;-86
2022/07/01 05:11:38;;;;;;;9.18;8.38;;;;;;;;;;5052270;28;20568;-86
2022/07/01 05:14:06;;;;;;;7.70;7.10;;;;;;;;;;5052377;28;20045;-87
2022/07/01 05:16:34;;;;;;;7.13;6.63;;;;;;;;;;5052539;28;20061;-86
2022/07/01 05:21:58;;;;;;;6.35;5.43;;;;;;;;;;5045108;28;20075;-86
2022/07/01 05:24:30;;;;;;;6.22;5.40;;;;;;;;;;5052188;28;20045;-86
2022/07/01 05:26:58;;;;;;;5.55;5.15;;;;;;;;;;5053420;28;20044;-87
2022/07/01 05:29:30;;;;;;;7.38;4.75;;;;;;;;;;5052077;28;20139;-86
2022/07/01 05:31:57;;;;;;;9.15;6.97;;;;;;;;;;5052242;28;20053;-86
2022/07/01 05:34:25;;;;;;;7.32;6.78;;;;;;;;;;5052736;28;20417;-85
2022/07/01 05:36:54;;;;;;;8.10;7.30;;;;;;;;;;5053212;28;20049;-86
2022/07/01 05:39:21;;;;;;;11.30;8.45;;;;;;;;;;5051463;28;20452;-86
2022/07/01 05:41:49;;;;;;;9.50;7.35;;;;;;;;;;5054400;28;20450;-86
2022/07/01 05:44:23;;;;;;;9.55;7.90;;;;;;;;;;5055788;28;20465;-85
2022/07/01 05:46:53;;;;;;;9.65;8.85;;;;;;;;;;5056240;28;20049;-85
2022/07/01 05:49:25;;;;;;;9.70;8.80;;;;;;;;;;5056174;28;20053;-86
2022/07/01 05:51:52;;;;;;;10.50;9.13;;;;;;;;;;5056114;28;20127;-86
2022/07/01 05:54:19;;;;;;;13.63;9.45;;;;;;;;;;5055772;28;20088;-86
2022/07/01 05:56:47;;;;;;;11.27;9.27;;;;;;;;;;5055909;28;20497;-87
2022/07/01 05:59:16;;;;;;;10.93;9.75;;;;;;;;;;5055862;28;20056;-88
2022/07/01 06:01:45;;;;;;;10.73;9.77;;;;;;;;;;5055412;28;20144;-87
2022/07/01 06:04:13;;;;;;;10.60;9.57;;;;;;;;;;5055610;28;20085;-86
2022/07/01 06:06:40;;;;;;;11.30;9.63;;;;;;;;;;5055865;28;20108;-86
2022/07/01 06:09:07;;;;;;;10.88;9.77;;;;;;;;;;5055838;28;20095;-86
2022/07/01 06:11:35;;;;;;;13.52;12.05;;;;;;;;;;5055375;28;20087;-85
2022/07/01 06:14:02;;;;;;;14.60;10.90;;;;;;;;;;5055401;28;20141;-85
2022/07/01 06:16:29;;;;;;;12.00;10.82;;;;;;;;;;5055652;28;20128;-86
2022/07/01 06:18:58;;;;;;;15.43;12.82;;;;;;;;;;5055466;28;20136;-87
2022/07/01 06:21:27;;;;;;;13.73;12.20;;;;;;;;;;5056497;28;20056;-85
2022/07/01 06:23:57;;;;;;;12.93;11.77;;;;;;;;;;5055700;28;20053;-86
2022/07/01 06:26:27;;;;;;;12.93;11.55;;;;;;;;;;5055084;28;20474;-85
2022/07/01 06:28:59;;;;;;;25.02;16.30;;;;;;;;;;5055549;28;20805;-86
2022/07/01 06:31:26;;;;;;;20.75;14.13;;;;;;;;;;5055334;28;20095;-85
2022/07/01 06:33:54;;;;;;;21.45;16.05;;;;;;;;;;5055316;28;20041;-86
2022/07/01 06:36:21;;;;;;;22.80;15.73;;;;;;;;;;5055378;28;20080;-88
2022/07/01 06:38:48;;;;;;;17.05;14.95;;;;;;;;;;5054793;28;20099;-86
2022/07/01 06:41:28;;;;;;;15.95;13.57;;;;;;;;;;5055458;28;20079;-87
2022/07/01 06:43:59;;;;;;;16.05;12.77;;;;;;;;;;5056173;28;20075;-88
2022/07/01 06:46:30;;;;;;;13.88;12.45;;;;;;;;;;5055497;28;20090;-88
2022/07/01 06:49:00;;;;;;;13.55;12.35;;;;;;;;;;5039011;28;20045;-87
2022/07/01 06:51:28;;;;;;;20.27;13.65;;;;;;;;;;5038226;28;20076;-86
2022/07/01 06:53:56;;;;;;;19.73;14.85;;;;;;;;;;5055281;28;20406;-88
2022/07/01 06:56:23;;;;;;;20.30;15.25;;;;;;;;;;5054763;28;20532;-88
2022/07/01 06:58:55;;;;;;;19.40;15.38;;;;;;;;;;5055880;28;20060;-88
2022/07/01 07:01:22;;;;;;;21.92;16.05;;;;;;;;;;5056302;28;20072;-89
2022/07/01 07:03:50;;;;;;;21.58;18.63;;;;;;;;;;5054716;28;20049;-90
2022/07/01 07:06:17;;;;;;;22.10;19.05;;;;;;;;;;5038565;28;20052;-90
2022/07/01 07:08:45;;;;;;;17.50;15.95;;;;;;;;;;5055138;28;20476;-88
2022/07/01 07:11:15;;;;;;;17.77;15.98;;;;;;;;;;5054560;28;20140;-91
2022/07/01 07:13:43;;;;;;;24.10;17.38;;;;;;;;;;5055811;28;20053;-90
2022/07/01 07:16:15;;;;;;;26.38;20.50;;;;;;;;;;5054644;28;20049;-90
2022/07/01 07:18:47;;;;;;;21.50;16.80;;;;;;;;;;5055452;28;20401;-90
2022/07/01 07:21:14;;;;;;;19.58;16.55;;;;;;;;;;5055833;28;20545;-91
2022/07/01 07:23:42;;;;;;;20.10;16.65;;;;;;;;;;5055747;28;20045;-91
2022/07/01 07:26:10;;;;;;;19.02;16.70;;;;;;;;;;5055017;28;20080;-90
2022/07/01 07:28:37;;;;;;;18.98;16.00;;;;;;;;;;5038449;28;20498;-89
2022/07/01 07:31:04;;;;;;;21.13;17.63;;;;;;;;;;5056313;28;20057;-89
2022/07/01 07:33:32;;;;;;;20.80;17.58;;;;;;;;;;5054837;28;20485;-88
2022/07/01 07:35:59;;;;;;;18.83;16.35;;;;;;;;;;5054456;28;20080;-90
2022/07/01 07:38:26;;;;;;;21.95;17.95;;;;;;;;;;5055101;28;20148;-89
2022/07/01 07:40:53;;;;;;;20.02;17.95;;;;;;;;;;5055324;28;20053;-89
2022/07/01 07:43:21;;;;;;;21.65;17.98;;;;;;;;;;5054118;28;20053;-88
2022/07/01 07:45:48;;;;;;;21.77;17.55;;;;;;;;;;5053881;28;20056;-86
2022/07/01 07:48:15;;;;;;;22.42;18.20;;;;;;;;;;5037643;28;20172;-86
2022/07/01 07:50:43;;;;;;;21.10;17.58;;;;;;;;;;5053978;28;20083;-86
2022/07/01 07:53:14;;;;;;;19.05;17.10;;;;;;;;;;5054857;28;20504;-86
2022/07/01 07:55:41;;;;;;;19.92;17.95;;;;;;;;;;5054940;28;20485;-86
2022/07/01 07:58:09;;;;;;;20.08;17.77;;;;;;;;;;5053612;28;20076;-86
2022/07/01 08:00:38;;;;;;;17.83;15.43;;;;;;;;;;5053484;28;20077;-85
2022/07/01 08:03:11;;;;;;;22.08;15.60;;;;;;;;;;5054000;28;20502;-86
2022/07/01 08:05:38;;;;;;;25.30;16.88;;;;;;;;;;5053493;28;20085;-86
2022/07/01 08:08:06;;;;;;;20.80;17.20;;;;;;;;;;5053353;28;20045;-86
2022/07/01 08:10:37;;;;;;;21.17;16.27;;;;;;;;;;5053150;28;20064;-85
2022/07/01 08:13:07;;;;;;;20.05;17.75;;;;;;;;;;5054655;28;20045;-87
2022/07/01 08:15:34;;;;;;;21.20;17.77;;;;;;;;;;5052956;28;20044;-85
2022/07/01 08:18:02;;;;;;;21.50;17.65;;;;;;;;;;5053207;28;20052;-85
2022/07/01 08:20:29;;;;;;;16.52;14.82;;;;;;;;;;5052805;28;20053;-85
2022/07/01 08:22:56;;;;;;;20.40;18.13;;;;;;;;;;5053163;28;20442;-86
2022/07/01 08:25:23;;;;;;;18.73;16.73;;;;;;;;;;5053896;28;20135;-86
2022/07/01 08:27:50;;;;;;;20.08;18.05;;;;;;;;;;5053483;28;20072;-86
2022/07/01 08:30:18;;;;;;;18.88;15.65;;;;;;;;;;5054202;28;20475;-85
2022/07/01 08:32:47;;;;;;;16.60;14.90;;;;;;;;;;5051900;28;20059;-85
2022/07/01 08:35:15;;;;;;;15.23;13.57;;;;;;;;;;5053856;28;20049;-86
2022/07/01 08:37:42;;;;;;;15.40;13.90;;;;;;;;;;5052618;28;20049;-85
2022/07/01 08:40:12;;;;;;;14.00;12.63;;;;;;;;;;5052395;28;20049;-85
2022/07/01 08:42:39;;;;;;;13.55;12.25;;;;;;;;;;5052694;28;20048;-85
2022/07/01 08:45:07;;;;;;;13.60;12.25;;;;;;;;;;5052841;28;20081;-85
2022/07/01 08:47:34;;;;;;;11.57;10.48;;;;;;;;;;5053988;28;20151;-85
2022/07/01 08:50:01;;;;;;;12.57;11.48;;;;;;;;;;5052510;28;20083;-86
2022/07/01 08:52:29;;;;;;;13.00;11.90;;;;;;;;;;5052793;28;20124;-85
2022/07/01 08:54:57;;;;;;;13.48;12.27;;;;;;;;;;5035935;28;20477;-86
2022/07/01 08:57:24;;;;;;;12.45;11.35;;;;;;;;;;5052824;28;20540;-87
2022/07/01 09:00:07;;;;;;;13.50;12.10;;;;;;;;;;5053699;28;20084;-88
2022/07/01 09:02:59;;;;;;;15.00;11.20;;;;;;;;;;5052563;28;20091;-86
2022/07/01 09:05:28;;;;;;;12.68;11.45;;;;;;;;;;5053566;28;20099;-86
2022/07/01 09:07:56;;;;;;;11.48;10.38;;;;;;;;;;5053630;28;20049;-87
2022/07/01 09:10:24;;;;;;;12.05;10.85;;;;;;;;;;5052314;28;20469;-85
2022/07/01 09:12:51;;;;;;;10.77;9.75;;;;;;;;;;5052134;28;20088;-86
2022/07/01 09:15:20;;;;;;;11.05;10.15;;;;;;;;;;5052076;28;20083;-86
2022/07/01 09:17:52;;;;;;;9.52;8.75;;;;;;;;;;5052829;28;20458;-86
2022/07/01 09:20:35;;;;;;;11.07;9.93;;;;;;;;;;5052437;28;20394;-86
2022/07/01 09:23:03;;;;;;;10.65;9.70;;;;;;;;;;5052462;28;20087;-86
2022/07/01 09:25:34;;;;;;;11.13;10.10;;;;;;;;;;5051710;28;20045;-86
2022/07/01 09:28:09;;;;;;;10.02;9.02;;;;;;;;;;5052311;28;20162;-85
2022/07/01 09:30:39;;;;;;;9.18;8.35;;;;;;;;;;5052533;28;20048;-87
2022/07/01 09:33:14;;;;;;;9.75;8.93;;;;;;;;;;5053363;28;20540;-86
2022/07/01 09:35:45;;;;;;;11.48;10.32;;;;;;;;;;5052907;28;20555;-85
2022/07/01 09:38:19;;;;;;;10.40;9.50;;;;;;;;;;5051289;28;20073;-85
2022/07/01 09:41:03;;;;;;;11.32;10.32;;;;;;;;;;5052099;28;20572;-85
2022/07/01 09:43:33;;;;;;;11.48;10.30;;;;;;;;;;5051905;28;20057;-85
2022/07/01 09:46:08;;;;;;;9.73;8.93;;;;;;;;;;5051794;28;20443;-85
2022/07/01 09:48:38;;;;;;;9.32;8.52;;;;;;;;;;5051797;28;20452;-85
2022/07/01 09:51:06;;;;;;;8.85;8.15;;;;;;;;;;5051888;28;20084;-84
2022/07/01 09:53:41;;;;;;;8.20;7.50;;;;;;;;;;5051545;28;20053;-84
2022/07/01 09:56:08;;;;;;;8.88;8.00;;;;;;;;;;5052585;28;20656;-85
2022/07/01 09:58:38;;;;;;;8.10;7.30;;;;;;;;;;5052582;28;20107;-85
2022/07/01 10:01:08;;;;;;;8.23;7.63;;;;;;;;;;5051433;28;20484;-85
2022/07/01 10:03:38;;;;;;;8.20;7.50;;;;;;;;;;5051836;28;20053;-84
2022/07/01 10:06:10;;;;;;;8.07;7.28;;;;;;;;;;5051363;28;20520;-85
2022/07/01 10:09:03;;;;;;;4.65;4.45;;;;;;;;;;5051356;28;20076;-84
2022/07/01 10:11:43;;;;;;;6.40;4.07;;;;;;;;;;5052276;28;20088;-84
2022/07/01 10:14:14;;;;;;;2.85;2.75;;;;;;;;;;5052533;28;20559;-84
2022/07/01 10:16:44;;;;;;;8.38;2.72;;;;;;;;;;5051537;28;20139;-84
2022/07/01 10:19:20;;;;;;;4.43;2.30;;;;;;;;;;5051350;28;20057;-85
2022/07/01 10:21:47;;;;;;;1.60;1.48;;;;;;;;;;5051049;28;20088;-84
2022/07/01 10:24:16;;;;;;;1.40;1.30;;;;;;;;;;5050785;28;20473;-84
2022/07/01 10:26:44;;;;;;;1.50;1.15;;;;;;;;;;5052740;28;20164;-84
2022/07/01 10:29:36;;;;;;;10.00;2.33;;;;;;;;;;5056348;28;20567;-87
2022/07/01 10:32:08;;;;;;;1.63;1.52;;;;;;;;;;5054782;28;20476;-84
2022/07/01 10:34:44;;;;;;;2.53;1.50;;;;;;;;;;5054518;28;20055;-85
2022/07/01 10:37:12;;;;;;;1.70;1.60;;;;;;;;;;5054773;28;20080;-84
2022/07/01 10:39:58;;;;;;;1.42;1.33;;;;;;;;;;5054152;28;20072;-83
2022/07/01 10:42:33;;;;;;;1.48;1.38;;;;;;;;;;5054376;28;20079;-82
2022/07/01 10:45:02;;;;;;;1.75;1.48;;;;;;;;;;5054483;28;20123;-84
2022/07/01 10:47:29;;;;;;;2.17;1.50;;;;;;;;;;5054169;28;20140;-83
2022/07/01 10:50:06;;;;;;;1.73;1.70;;;;;;;;;;5054200;28;20045;-83
2022/07/01 10:52:34;;;;;;;1.55;1.50;;;;;;;;;;5054140;28;20068;-83
2022/07/01 10:55:05;;;;;;;3.33;1.70;;;;;;;;;;5053994;28;20056;-84
2022/07/01 10:57:34;;;;;;;1.30;1.20;;;;;;;;;;5054192;28;20068;-83
2022/07/01 11:00:01;;;;;;;1.70;1.60;;;;;;;;;;5054203;28;20056;-84
2022/07/01 11:02:35;;;;;;;1.80;1.70;;;;;;;;;;5053804;28;20497;-83
2022/07/01 11:05:13;;;;;;;2.30;1.80;;;;;;;;;;5053938;28;20052;-83
2022/07/01 11:07:47;;;;;;;2.25;1.38;;;;;;;;;;5053954;28;20573;-84
2022/07/01 11:10:16;;;;;;;1.50;0.80;;;;;;;;;;5055323;28;20486;-83
2022/07/01 11:12:44;;;;;;;0.85;0.85;;;;;;;;;;5053954;28;20077;-85
2022/07/01 11:15:12;;;;;;;0.90;0.90;;;;;;;;;;5053802;28;20049;-83
2022/07/01 11:17:43;;;;;;;1.00;1.00;;;;;;;;;;5055319;28;20072;-84
2022/07/01 11:20:11;;;;;;;1.23;0.90;;;;;;;;;;5054766;28;20052;-85
2022/07/01 11:22:38;;;;;;;2.50;1.23;;;;;;;;;;5053873;28;20211;-86
2022/07/01 11:25:07;;;;;;;1.40;1.30;;;;;;;;;;5053902;28;20049;-84
2022/07/01 11:27:34;;;;;;;1.00;1.00;;;;;;;;;;5054730;28;20095;-86
2022/07/01 11:30:06;;;;;;;2.05;1.25;;;;;;;;;;5054202;28;20096;-84
2022/07/01 11:32:35;;;;;;;1.75;1.10;;;;;;;;;;5053394;28;20085;-83
2022/07/01 11:39:21;;;;;;;1.00;0.90;;;;;;;;;;5053655;28;20073;-85
2022/07/01 11:40:37;;;;;;;1.00;1.00;;;;;;;;;;5054453;28;20091;-83
2022/07/01 11:43:17;;;;;;;2.15;1.08;;;;;;;;;;5054191;28;20563;-85
2022/07/01 11:45:45;;;;;;;2.47;1.17;;;;;;;;;;5053207;28;20059;-84
2022/07/01 11:48:12;;;;;;;1.13;1.13;;;;;;;;;;5053706;28;20049;-86
2022/07/01 11:50:39;;;;;;;1.10;1.10;;;;;;;;;;5053271;28;20547;-84
2022/07/01 11:53:08;;;;;;;1.90;1.30;;;;;;;;;;5053342;28;20406;-84
2022/07/01 11:55:35;;;;;;;2.38;1.50;;;;;;;;;;5052882;28;20594;-84
2022/07/01 11:58:05;;;;;;;3.80;1.52;;;;;;;;;;5054466;28;20053;-84
2022/07/01 12:00:34;;;;;;;1.73;1.48;;;;;;;;;;5054164;28;20049;-84
2022/07/01 12:03:01;;;;;;;1.30;1.30;;;;;;;;;;5054410;28;20049;-85
2022/07/01 12:05:29;;;;;;;1.75;1.65;;;;;;;;;;5052758;28;20040;-84
2022/07/01 12:08:04;;;;;;;1.70;1.60;;;;;;;;;;5054387;28;20059;-85
2022/07/01 12:10:31;;;;;;;2.47;1.80;;;;;;;;;;5053865;28;20461;-85
2022/07/01 12:12:58;;;;;;;1.98;1.88;;;;;;;;;;5053212;28;20053;-84
2022/07/01 12:15:26;;;;;;;1.92;1.85;;;;;;;;;;5052778;28;20076;-85
2022/07/01 12:18:04;;;;;;;1.73;1.73;;;;;;;;;;5053105;28;20143;-86
2022/07/01 12:20:32;;;;;;;5.60;2.40;;;;;;;;;;5052700;28;20056;-84
2022/07/01 12:23:15;;;;;;;2.05;1.80;;;;;;;;;;5052830;28;20076;-84
2022/07/01 12:25:47;;;;;;;1.90;1.80;;;;;;;;;;5052530;28;20119;-84
2022/07/01 12:28:27;;;;;;;2.00;1.90;;;;;;;;;;5052518;28;20057;-84
2022/07/01 12:31:08;;;;;;;1.77;1.77;;;;;;;;;;5053222;28;20048;-83
2022/07/01 12:33:36;;;;;;;1.90;1.80;;;;;;;;;;5052346;28;20485;-84
2022/07/01 12:36:04;;;;;;;1.58;1.58;;;;;;;;;;5053306;28;20053;-85
2022/07/01 12:38:32;;;;;;;2.08;1.98;;;;;;;;;;5051646;28;20136;-84
2022/07/01 12:40:59;;;;;;;6.85;2.28;;;;;;;;;;5053460;28;20076;-84
2022/07/01 12:43:34;;;;;;;2.17;2.08;;;;;;;;;;5051957;28;20099;-84
2022/07/01 12:46:01;;;;;;;5.28;2.53;;;;;;;;;;5053272;28;20095;-84
2022/07/01 12:48:30;;;;;;;2.15;2.05;;;;;;;;;;5052484;28;20516;-83
2022/07/01 12:50:58;;;;;;;2.42;2.22;;;;;;;;;;5051807;28;20079;-85
2022/07/01 12:53:28;;;;;;;1.90;1.80;;;;;;;;;;5052225;28;20091;-84
2022/07/01 12:55:56;;;;;;;1.90;1.80;;;;;;;;;;5052781;28;20540;-83
2022/07/01 12:58:27;;;;;;;3.47;2.00;;;;;;;;;;5051657;28;20111;-83
2022/07/01 13:00:56;;;;;;;1.83;1.80;;;;;;;;;;5051958;28;20053;-84
2022/07/01 13:03:25;;;;;;;2.13;2.03;;;;;;;;;;5050379;28;20057;-84
2022/07/01 13:05:53;;;;;;;2.92;1.90;;;;;;;;;;5051489;28;20084;-84
2022/07/01 13:08:20;;;;;;;2.88;2.15;;;;;;;;;;5052731;28;20094;-84
2022/07/01 13:10:48;;;;;;;2.75;1.92;;;;;;;;;;5052516;28;20457;-84
2022/07/01 13:13:17;;;;;;;2.25;2.15;;;;;;;;;;5052602;28;20081;-84
2022/07/01 13:15:44;;;;;;;2.20;2.10;;;;;;;;;;5051070;28;20088;-84
2022/07/01 13:18:14;;;;;;;1.83;1.80;;;;;;;;;;5051464;28;20428;-83
2022/07/01 13:20:41;;;;;;;2.40;2.20;;;;;;;;;;5051308;28;20489;-84
2022/07/01 13:23:09;;;;;;;9.20;2.22;;;;;;;;;;5050809;28;20151;-84
2022/07/01 13:25:36;;;;;;;2.40;2.22;;;;;;;;;;5052435;28;20075;-83
2022/07/01 13:28:04;;;;;;;4.32;2.35;;;;;;;;;;5051347;28;20045;-84
2022/07/01 13:30:31;;;;;;;2.25;2.08;;;;;;;;;;5051012;28;20137;-83
2022/07/01 13:32:58;;;;;;;2.78;1.98;;;;;;;;;;5050986;28;20049;-84
2022/07/01 13:35:26;;;;;;;2.67;2.47;;;;;;;;;;5052045;28;20489;-83
2022/07/01 13:37:53;;;;;;;5.13;2.75;;;;;;;;;;5051370;28;20055;-83
2022/07/01 13:40:21;;;;;;;2.97;2.38;;;;;;;;;;5051921;28;20560;-83
2022/07/01 13:42:49;;;;;;;2.30;2.10;;;;;;;;;;5050866;28;20087;-84
2022/07/01 13:45:16;;;;;;;2.50;2.30;;;;;;;;;;5050748;28;20080;-84
2022/07/01 13:47:43;;;;;;;2.50;2.30;;;;;;;;;;5050884;28;20103;-84
2022/07/01 13:50:10;;;;;;;3.22;2.28;;;;;;;;;;5051000;28;20049;-84
2022/07/01 13:52:37;;;;;;;5.82;2.60;;;;;;;;;;5052185;28;20501;-84
2022/07/01 13:55:11;;;;;;;2.60;2.50;;;;;;;;;;5051927;28;20417;-84
2022/07/01 13:57:38;;;;;;;2.00;1.90;;;;;;;;;;5052081;28;20146;-84
2022/07/01 14:00:08;;;;;;;2.65;2.25;;;;;;;;;;5052040;28;20516;-84
2022/07/01 14:02:35;;;;;;;3.35;2.40;;;;;;;;;;5053112;28;20048;-84
2022/07/01 14:05:03;;;;;;;2.85;2.22;;;;;;;;;;5054949;28;20073;-85
2022/07/01 14:07:30;;;;;;;4.93;2.20;;;;;;;;;;5055203;28;20132;-85
2022/07/01 14:09:57;;;;;;;2.40;2.30;;;;;;;;;;5055231;28;20523;-85
2022/07/01 14:12:25;;;;;;;3.85;3.00;;;;;;;;;;5055209;28;20405;-85
2022/07/01 14:14:57;;;;;;;2.95;2.65;;;;;;;;;;5055933;28;20144;-84
2022/07/01 14:17:25;;;;;;;3.20;2.72;;;;;;;;;;5055235;28;20064;-85
2022/07/01 14:19:52;;;;;;;3.20;3.00;;;;;;;;;;5056414;28;20041;-87
2022/07/01 14:22:20;;;;;;;3.42;2.58;;;;;;;;;;5056338;28;20142;-85
2022/07/01 14:24:47;;;;;;;2.88;2.67;;;;;;;;;;5046853;28;20080;-87
2022/07/01 14:27:14;;;;;;;2.95;2.55;;;;;;;;;;5054965;28;20139;-85
2022/07/01 14:29:41;;;;;;;2.63;2.13;;;;;;;;;;5054938;28;20057;-85
2022/07/01 14:32:08;;;;;;;3.35;2.78;;;;;;;;;;5056224;28;20096;-85
2022/07/01 14:34:36;;;;;;;3.40;3.10;;;;;;;;;;5054804;28;20494;-85
2022/07/01 14:37:04;;;;;;;3.38;3.17;;;;;;;;;;5056236;28;20051;-86
2022/07/01 14:39:31;;;;;;;3.40;3.08;;;;;;;;;;5055360;28;20481;-85
2022/07/01 14:41:58;;;;;;;3.58;3.25;;;;;;;;;;5055704;28;20093;-85
2022/07/01 14:44:25;;;;;;;3.50;3.30;;;;;;;;;;5055427;28;20115;-85
2022/07/01 14:46:53;;;;;;;3.65;3.35;;;;;;;;;;5054680;28;20104;-85
2022/07/01 14:49:20;;;;;;;3.83;3.35;;;;;;;;;;5054460;28;20049;-85
2022/07/01 14:51:48;;;;;;;4.75;3.65;;;;;;;;;;5054610;28;20049;-85
2022/07/01 14:54:16;;;;;;;3.60;3.40;;;;;;;;;;5055351;28;20087;-85
2022/07/01 14:56:43;;;;;;;4.32;3.92;;;;;;;;;;5055364;28;20556;-85
2022/07/01 14:59:11;;;;;;;4.00;3.70;;;;;;;;;;5054685;28;20052;-85